SWA2099 KSAT-KHOU
Flight info
| Callsign | SWA2099 |
|---|---|
| Flight time | 0h 38m |
| Altitude | 23000 |
| Route | SNIDR2 WEMAR BELLR6 |
| Aircraft | B737/M-SADE2E3GIJ4RWZ/LB1D1 |
Departure
| Time | 2026-04-29 02:41 |
|---|---|
| Airport | San Antonio International Airport (KSAT) |
Arrival
| Time | 2026-04-29 03:19 |
|---|---|
| Airport | William P. Hobby Airport (KHOU) |
| Time | Latitude | Longitude | Altitude | Speed | Heading |
|---|---|---|---|---|---|
| 2026-04-29 02:08 | 29.52701 | -98.46986 | 818 ft | 0 kts | 312° |
| 2026-04-29 02:29 | 29.52693 | -98.46975 | 818 ft | 2 kts | 312° |
| 2026-04-29 02:29 | 29.52683 | -98.46962 | 818 ft | 2 kts | 313° |
| 2026-04-29 02:29 | 29.52671 | -98.46952 | 818 ft | 2 kts | 334° |
| 2026-04-29 02:29 | 29.52657 | -98.46947 | 818 ft | 2 kts | 351° |
| 2026-04-29 02:30 | 29.52642 | -98.46946 | 818 ft | 2 kts | 7° |
| 2026-04-29 02:30 | 29.52628 | -98.46950 | 818 ft | 2 kts | 24° |
| 2026-04-29 02:30 | 29.52615 | -98.46957 | 818 ft | 0 kts | 39° |
| 2026-04-29 02:30 | 29.52611 | -98.46963 | 818 ft | 1 kts | 43° |
| 2026-04-29 02:31 | 29.52610 | -98.46963 | 818 ft | 0 kts | 43° |
| 2026-04-29 02:35 | 29.52613 | -98.46960 | 818 ft | 1 kts | 43° |
| 2026-04-29 02:35 | 29.52631 | -98.46944 | 818 ft | 6 kts | 39° |
| 2026-04-29 02:35 | 29.52676 | -98.46899 | 818 ft | 10 kts | 41° |
| 2026-04-29 02:36 | 29.52706 | -98.46838 | 818 ft | 9 kts | 91° |
| 2026-04-29 02:36 | 29.52746 | -98.46786 | 818 ft | 11 kts | 342° |
| 2026-04-29 02:36 | 29.52811 | -98.46860 | 818 ft | 16 kts | 313° |
| 2026-04-29 02:36 | 29.52902 | -98.46979 | 818 ft | 25 kts | 311° |
| 2026-04-29 02:37 | 29.53033 | -98.47149 | 818 ft | 30 kts | 311° |
| 2026-04-29 02:37 | 29.53178 | -98.47336 | 818 ft | 32 kts | 313° |
| 2026-04-29 02:37 | 29.53335 | -98.47531 | 818 ft | 33 kts | 313° |
| 2026-04-29 02:37 | 29.53472 | -98.47711 | 818 ft | 29 kts | 312° |
| 2026-04-29 02:38 | 29.53618 | -98.47900 | 818 ft | 33 kts | 312° |
| 2026-04-29 02:38 | 29.53778 | -98.48106 | 818 ft | 33 kts | 312° |
| 2026-04-29 02:38 | 29.53927 | -98.48293 | 818 ft | 29 kts | 314° |
| 2026-04-29 02:38 | 29.54046 | -98.48451 | 818 ft | 23 kts | 310° |
| 2026-04-29 02:39 | 29.54144 | -98.48579 | 818 ft | 17 kts | 311° |
| 2026-04-29 02:39 | 29.54185 | -98.48608 | 818 ft | 0 kts | 359° |
| 2026-04-29 02:40 | 29.54190 | -98.48608 | 818 ft | 3 kts | 359° |
| 2026-04-29 02:40 | 29.54230 | -98.48587 | 818 ft | 10 kts | 43° |
| 2026-04-29 02:40 | 29.54244 | -98.48515 | 818 ft | 10 kts | 132° |
| 2026-04-29 02:40 | 29.54164 | -98.48411 | 818 ft | 37 kts | 131° |
| 2026-04-29 02:41 | 29.53829 | -98.47980 | 818 ft | 104 kts | 132° |
| 2026-04-29 02:41 | 29.53223 | -98.47197 | 831 ft | 155 kts | 132° |
| 2026-04-29 02:41 | 29.52535 | -98.46304 | 1502 ft | 148 kts | 132° |
| 2026-04-29 02:41 | 29.51842 | -98.45410 | 2112 ft | 158 kts | 133° |
| 2026-04-29 02:42 | 29.51070 | -98.44424 | 2698 ft | 182 kts | 133° |
| 2026-04-29 02:42 | 29.50158 | -98.43259 | 3265 ft | 210 kts | 133° |
| 2026-04-29 02:42 | 29.49124 | -98.41937 | 3966 ft | 235 kts | 133° |
| 2026-04-29 02:42 | 29.47999 | -98.40499 | 4719 ft | 257 kts | 133° |
| 2026-04-29 02:43 | 29.46755 | -98.38908 | 5048 ft | 271 kts | 133° |
| 2026-04-29 02:43 | 29.45503 | -98.37305 | 4998 ft | 268 kts | 133° |
| 2026-04-29 02:43 | 29.44274 | -98.35731 | 4999 ft | 266 kts | 133° |
| 2026-04-29 02:43 | 29.43028 | -98.34135 | 4998 ft | 267 kts | 133° |
| 2026-04-29 02:44 | 29.41801 | -98.32564 | 4996 ft | 267 kts | 133° |
| 2026-04-29 02:44 | 29.40554 | -98.30966 | 4994 ft | 267 kts | 133° |
| 2026-04-29 02:44 | 29.39314 | -98.29378 | 5041 ft | 277 kts | 133° |
| 2026-04-29 02:44 | 29.38106 | -98.27567 | 5994 ft | 292 kts | 118° |
| 2026-04-29 02:45 | 29.37678 | -98.25401 | 7403 ft | 291 kts | 90° |
| 2026-04-29 02:45 | 29.38275 | -98.23189 | 8572 ft | 298 kts | 58° |
| 2026-04-29 02:45 | 29.39697 | -98.21488 | 9680 ft | 303 kts | 42° |
| 2026-04-29 02:45 | 29.41128 | -98.19745 | 10669 ft | 309 kts | 56° |
| 2026-04-29 02:46 | 29.42311 | -98.17621 | 11277 ft | 329 kts | 58° |
| 2026-04-29 02:46 | 29.43633 | -98.15428 | 12141 ft | 340 kts | 54° |
| 2026-04-29 02:46 | 29.45064 | -98.13246 | 13018 ft | 350 kts | 53° |
| 2026-04-29 02:46 | 29.46539 | -98.11019 | 13907 ft | 358 kts | 53° |
| 2026-04-29 02:47 | 29.48063 | -98.08727 | 14790 ft | 365 kts | 53° |
| 2026-04-29 02:47 | 29.49611 | -98.06415 | 15646 ft | 373 kts | 53° |
| 2026-04-29 02:47 | 29.51215 | -98.04026 | 16490 ft | 380 kts | 53° |
| 2026-04-29 02:47 | 29.52834 | -98.01618 | 17298 ft | 387 kts | 52° |
| 2026-04-29 02:48 | 29.54485 | -97.99161 | 18088 ft | 394 kts | 52° |
| 2026-04-29 02:48 | 29.56164 | -97.96664 | 18859 ft | 401 kts | 52° |
| 2026-04-29 02:48 | 29.57882 | -97.94109 | 19619 ft | 408 kts | 52° |
| 2026-04-29 02:48 | 29.59604 | -97.91547 | 20349 ft | 414 kts | 51° |
| 2026-04-29 02:49 | 29.61379 | -97.88905 | 21167 ft | 417 kts | 51° |
| 2026-04-29 02:49 | 29.63057 | -97.86237 | 22080 ft | 417 kts | 57° |
| 2026-04-29 02:49 | 29.64377 | -97.83308 | 22804 ft | 416 kts | 68° |
| 2026-04-29 02:49 | 29.65187 | -97.80076 | 22919 ft | 425 kts | 83° |
| 2026-04-29 02:50 | 29.65372 | -97.76681 | 22880 ft | 421 kts | 92° |
| 2026-04-29 02:50 | 29.65372 | -97.73359 | 22888 ft | 414 kts | 92° |
| 2026-04-29 02:50 | 29.65416 | -97.70101 | 22888 ft | 412 kts | 91° |
| 2026-04-29 02:50 | 29.65477 | -97.66799 | 22889 ft | 413 kts | 91° |
| 2026-04-29 02:51 | 29.65525 | -97.63501 | 22888 ft | 414 kts | 91° |
| 2026-04-29 02:51 | 29.65564 | -97.60191 | 22889 ft | 414 kts | 91° |
| 2026-04-29 02:51 | 29.65601 | -97.56892 | 22890 ft | 414 kts | 91° |
| 2026-04-29 02:51 | 29.65637 | -97.53596 | 22888 ft | 414 kts | 91° |
| 2026-04-29 02:52 | 29.65671 | -97.50271 | 22889 ft | 413 kts | 91° |
| 2026-04-29 02:52 | 29.65703 | -97.46984 | 22890 ft | 413 kts | 91° |
| 2026-04-29 02:52 | 29.65734 | -97.43679 | 22889 ft | 413 kts | 91° |
| 2026-04-29 02:52 | 29.65763 | -97.40391 | 22898 ft | 413 kts | 91° |
| 2026-04-29 02:53 | 29.65791 | -97.37110 | 22913 ft | 413 kts | 91° |
| 2026-04-29 02:53 | 29.65819 | -97.33788 | 22923 ft | 413 kts | 92° |
| 2026-04-29 02:53 | 29.65846 | -97.30504 | 22936 ft | 413 kts | 92° |
| 2026-04-29 02:53 | 29.65871 | -97.27227 | 22950 ft | 413 kts | 92° |
| 2026-04-29 02:54 | 29.65896 | -97.23891 | 22963 ft | 413 kts | 92° |
| 2026-04-29 02:54 | 29.65918 | -97.20617 | 22974 ft | 413 kts | 92° |
| 2026-04-29 02:54 | 29.65939 | -97.17316 | 22982 ft | 414 kts | 91° |
| 2026-04-29 02:54 | 29.65959 | -97.13997 | 22981 ft | 416 kts | 91° |
| 2026-04-29 02:55 | 29.65979 | -97.10687 | 22980 ft | 417 kts | 90° |
| 2026-04-29 02:55 | 29.65998 | -97.07375 | 22981 ft | 418 kts | 89° |
| 2026-04-29 02:55 | 29.65940 | -97.04000 | 22982 ft | 418 kts | 93° |
| 2026-04-29 02:55 | 29.65554 | -97.00706 | 22982 ft | 417 kts | 101° |
| 2026-04-29 02:56 | 29.64743 | -96.97533 | 22981 ft | 418 kts | 110° |
| 2026-04-29 02:56 | 29.63624 | -96.94450 | 22981 ft | 418 kts | 112° |
| 2026-04-29 02:56 | 29.62502 | -96.91389 | 22977 ft | 418 kts | 112° |
| 2026-04-29 02:56 | 29.61402 | -96.88288 | 22973 ft | 418 kts | 111° |
| 2026-04-29 02:57 | 29.60303 | -96.85194 | 22970 ft | 418 kts | 111° |
| 2026-04-29 02:57 | 29.59201 | -96.82125 | 22966 ft | 418 kts | 112° |
| 2026-04-29 02:57 | 29.58090 | -96.79038 | 22961 ft | 417 kts | 112° |
| 2026-04-29 02:57 | 29.56994 | -96.76000 | 22959 ft | 417 kts | 112° |
| 2026-04-29 02:58 | 29.55879 | -96.72911 | 22956 ft | 417 kts | 112° |
| 2026-04-29 02:58 | 29.54770 | -96.69843 | 22907 ft | 416 kts | 112° |
| 2026-04-29 02:58 | 29.53667 | -96.66798 | 22517 ft | 412 kts | 112° |
| 2026-04-29 02:58 | 29.52577 | -96.63792 | 22036 ft | 410 kts | 112° |
| 2026-04-29 02:59 | 29.51479 | -96.60767 | 21534 ft | 409 kts | 112° |
| 2026-04-29 02:59 | 29.50395 | -96.57783 | 21035 ft | 407 kts | 112° |
| 2026-04-29 02:59 | 29.49307 | -96.54792 | 20530 ft | 406 kts | 112° |
| 2026-04-29 02:59 | 29.48221 | -96.51810 | 20027 ft | 404 kts | 112° |
| 2026-04-29 03:00 | 29.47142 | -96.48848 | 19524 ft | 403 kts | 112° |
| 2026-04-29 03:00 | 29.46067 | -96.45900 | 18971 ft | 398 kts | 112° |
| 2026-04-29 03:00 | 29.45024 | -96.43043 | 18509 ft | 386 kts | 112° |
| 2026-04-29 03:00 | 29.43993 | -96.40221 | 18034 ft | 376 kts | 112° |
| 2026-04-29 03:01 | 29.43006 | -96.37521 | 17788 ft | 363 kts | 112° |
| 2026-04-29 03:01 | 29.42041 | -96.34883 | 17311 ft | 363 kts | 112° |
| 2026-04-29 03:01 | 29.41068 | -96.32226 | 16853 ft | 362 kts | 112° |
| 2026-04-29 03:01 | 29.40095 | -96.29568 | 16396 ft | 360 kts | 112° |
| 2026-04-29 03:02 | 29.39124 | -96.26920 | 15926 ft | 359 kts | 112° |
| 2026-04-29 03:02 | 29.38160 | -96.24294 | 15467 ft | 357 kts | 112° |
| 2026-04-29 03:02 | 29.37201 | -96.21680 | 15015 ft | 355 kts | 112° |
| 2026-04-29 03:02 | 29.36251 | -96.19096 | 14567 ft | 353 kts | 112° |
| 2026-04-29 03:03 | 29.35299 | -96.16509 | 14117 ft | 351 kts | 112° |
| 2026-04-29 03:03 | 29.34359 | -96.13952 | 13666 ft | 347 kts | 112° |
| 2026-04-29 03:03 | 29.33546 | -96.11402 | 13226 ft | 336 kts | 102° |
| 2026-04-29 03:03 | 29.33490 | -96.08809 | 12966 ft | 320 kts | 77° |
| 2026-04-29 03:04 | 29.34262 | -96.06531 | 13000 ft | 306 kts | 59° |
| 2026-04-29 03:04 | 29.35477 | -96.04525 | 12936 ft | 301 kts | 49° |
| 2026-04-29 03:04 | 29.36787 | -96.02666 | 12744 ft | 303 kts | 50° |
| 2026-04-29 03:04 | 29.38096 | -96.00752 | 12395 ft | 307 kts | 50° |
| 2026-04-29 03:05 | 29.39409 | -95.98825 | 12016 ft | 305 kts | 50° |
| 2026-04-29 03:05 | 29.40721 | -95.96916 | 11631 ft | 304 kts | 50° |
| 2026-04-29 03:05 | 29.42019 | -95.95026 | 11247 ft | 302 kts | 50° |
| 2026-04-29 03:05 | 29.43300 | -95.93161 | 10867 ft | 300 kts | 50° |
| 2026-04-29 03:06 | 29.44593 | -95.91279 | 10482 ft | 299 kts | 50° |
| 2026-04-29 03:06 | 29.45880 | -95.89405 | 10101 ft | 297 kts | 51° |
| 2026-04-29 03:06 | 29.47117 | -95.87585 | 9967 ft | 286 kts | 52° |
| 2026-04-29 03:06 | 29.48260 | -95.85723 | 9979 ft | 282 kts | 54° |
| 2026-04-29 03:07 | 29.49349 | -95.83912 | 9847 ft | 279 kts | 54° |
| 2026-04-29 03:07 | 29.50486 | -95.82050 | 9471 ft | 286 kts | 54° |
| 2026-04-29 03:07 | 29.51614 | -95.80198 | 9122 ft | 285 kts | 54° |
| 2026-04-29 03:07 | 29.52720 | -95.78378 | 8781 ft | 283 kts | 54° |
| 2026-04-29 03:08 | 29.53834 | -95.76548 | 8435 ft | 280 kts | 54° |
| 2026-04-29 03:08 | 29.54931 | -95.74744 | 8099 ft | 271 kts | 54° |
| 2026-04-29 03:08 | 29.55996 | -95.72993 | 7771 ft | 264 kts | 54° |
| 2026-04-29 03:08 | 29.57015 | -95.71316 | 7457 ft | 257 kts | 54° |
| 2026-04-29 03:09 | 29.58028 | -95.69650 | 7144 ft | 250 kts | 54° |
| 2026-04-29 03:09 | 29.59004 | -95.68042 | 6844 ft | 246 kts | 54° |
| 2026-04-29 03:09 | 29.59979 | -95.66436 | 6543 ft | 245 kts | 55° |
| 2026-04-29 03:09 | 29.60937 | -95.64858 | 6306 ft | 243 kts | 55° |
| 2026-04-29 03:10 | 29.61893 | -95.63281 | 6155 ft | 241 kts | 55° |
| 2026-04-29 03:10 | 29.62844 | -95.61713 | 5861 ft | 240 kts | 55° |
| 2026-04-29 03:10 | 29.63809 | -95.60143 | 5584 ft | 238 kts | 51° |
| 2026-04-29 03:10 | 29.64935 | -95.58780 | 5289 ft | 238 kts | 44° |
| 2026-04-29 03:11 | 29.66122 | -95.57444 | 4997 ft | 237 kts | 45° |
| 2026-04-29 03:11 | 29.67281 | -95.56124 | 4713 ft | 236 kts | 44° |
| 2026-04-29 03:11 | 29.68450 | -95.54820 | 4506 ft | 230 kts | 44° |
| 2026-04-29 03:11 | 29.69553 | -95.53599 | 4412 ft | 216 kts | 44° |
| 2026-04-29 03:12 | 29.70616 | -95.52423 | 4190 ft | 208 kts | 44° |
| 2026-04-29 03:12 | 29.71653 | -95.51283 | 4027 ft | 200 kts | 44° |
| 2026-04-29 03:12 | 29.72624 | -95.50221 | 3903 ft | 187 kts | 44° |
| 2026-04-29 03:12 | 29.73545 | -95.49218 | 3708 ft | 178 kts | 44° |
| 2026-04-29 03:13 | 29.74428 | -95.48263 | 3423 ft | 175 kts | 44° |
| 2026-04-29 03:13 | 29.75313 | -95.47311 | 3116 ft | 174 kts | 44° |
| 2026-04-29 03:13 | 29.76191 | -95.46375 | 2827 ft | 171 kts | 44° |
| 2026-04-29 03:13 | 29.77012 | -95.45431 | 2621 ft | 161 kts | 58° |
| 2026-04-29 03:14 | 29.77272 | -95.44257 | 2311 ft | 150 kts | 105° |
| 2026-04-29 03:14 | 29.76834 | -95.43257 | 2120 ft | 131 kts | 127° |
| 2026-04-29 03:14 | 29.76366 | -95.42425 | 1925 ft | 124 kts | 128° |
| 2026-04-29 03:14 | 29.75843 | -95.41595 | 2045 ft | 134 kts | 129° |
| 2026-04-29 03:15 | 29.75278 | -95.40739 | 1986 ft | 133 kts | 134° |
| 2026-04-29 03:15 | 29.74653 | -95.39948 | 1988 ft | 134 kts | 135° |
| 2026-04-29 03:15 | 29.74008 | -95.39166 | 1991 ft | 134 kts | 136° |
| 2026-04-29 03:15 | 29.73364 | -95.38397 | 1993 ft | 134 kts | 136° |
| 2026-04-29 03:16 | 29.72711 | -95.37618 | 1994 ft | 134 kts | 136° |
| 2026-04-29 03:16 | 29.72062 | -95.36846 | 1996 ft | 134 kts | 136° |
| 2026-04-29 03:16 | 29.71406 | -95.36065 | 1888 ft | 137 kts | 136° |
| 2026-04-29 03:16 | 29.70751 | -95.35284 | 1716 ft | 133 kts | 136° |
| 2026-04-29 03:17 | 29.70106 | -95.34511 | 1542 ft | 133 kts | 136° |
| 2026-04-29 03:17 | 29.69468 | -95.33751 | 1365 ft | 133 kts | 136° |
| 2026-04-29 03:17 | 29.68826 | -95.32987 | 1173 ft | 133 kts | 136° |
| 2026-04-29 03:17 | 29.68192 | -95.32225 | 1005 ft | 132 kts | 136° |
| 2026-04-29 03:18 | 29.67554 | -95.31458 | 853 ft | 130 kts | 135° |
| 2026-04-29 03:18 | 29.66936 | -95.30701 | 669 ft | 131 kts | 136° |
| 2026-04-29 03:18 | 29.66299 | -95.29964 | 462 ft | 129 kts | 137° |
| 2026-04-29 03:18 | 29.65672 | -95.29233 | 297 ft | 129 kts | 136° |
| 2026-04-29 03:19 | 29.65057 | -95.28503 | 118 ft | 127 kts | 136° |
| 2026-04-29 03:19 | 29.64482 | -95.27826 | 52 ft | 88 kts | 137° |
| 2026-04-29 03:19 | 29.64193 | -95.27486 | 52 ft | 49 kts | 133° |
| 2026-04-29 03:19 | 29.64008 | -95.27261 | 52 ft | 26 kts | 133° |
| 2026-04-29 03:20 | 29.63929 | -95.27117 | 52 ft | 20 kts | 104° |
| 2026-04-29 03:20 | 29.63923 | -95.26965 | 52 ft | 16 kts | 89° |
| 2026-04-29 03:20 | 29.63959 | -95.26869 | 52 ft | 13 kts | 13° |
| 2026-04-29 03:20 | 29.64072 | -95.26860 | 52 ft | 19 kts | 6° |
| 2026-04-29 03:21 | 29.64182 | -95.26911 | 52 ft | 17 kts | 310° |
| 2026-04-29 03:21 | 29.64260 | -95.27018 | 52 ft | 17 kts | 309° |
| 2026-04-29 03:21 | 29.64337 | -95.27119 | 52 ft | 19 kts | 311° |
| 2026-04-29 03:21 | 29.64418 | -95.27264 | 52 ft | 23 kts | 309° |
| 2026-04-29 03:22 | 29.64542 | -95.27418 | 52 ft | 25 kts | 314° |
| 2026-04-29 03:22 | 29.64646 | -95.27510 | 52 ft | 15 kts | 346° |
| 2026-04-29 03:22 | 29.64704 | -95.27515 | 52 ft | 0 kts | 359° |
| 2026-04-29 03:23 | 29.64706 | -95.27515 | 52 ft | 1 kts | 358° |
| 2026-04-29 03:23 | 29.64772 | -95.27517 | 52 ft | 16 kts | 0° |
| 2026-04-29 03:24 | 29.64909 | -95.27520 | 52 ft | 18 kts | 358° |
| 2026-04-29 03:24 | 29.65045 | -95.27523 | 52 ft | 20 kts | 359° |
| 2026-04-29 03:24 | 29.65108 | -95.27420 | 52 ft | 16 kts | 77° |
| 2026-04-29 03:24 | 29.65181 | -95.27307 | 52 ft | 18 kts | 44° |
| 2026-04-29 03:25 | 29.65278 | -95.27330 | 52 ft | 16 kts | 315° |
| 2026-04-29 03:25 | 29.65344 | -95.27430 | 52 ft | 12 kts | 293° |
| 2026-04-29 03:25 | 29.65367 | -95.27509 | 52 ft | 8 kts | 285° |
| 2026-04-29 03:25 | 29.65361 | -95.27569 | 52 ft | 6 kts | 232° |
| 2026-04-29 03:26 | 29.65330 | -95.27587 | 52 ft | 2 kts | 201° |
| 2026-04-29 03:26 | 29.65328 | -95.27588 | 52 ft | 0 kts | 201° |